AirNav   Air Wisconsin pilot careers
 
 1377 users online  

KRBD Dallas Executive Airport
Dallas, Texas, USA

GOING TO DALLAS?


FAA INFORMATION EFFECTIVE 24 MAY 2018

Location

FAA Identifier: RBD
Lat/Long: 32-40-51.1000N / 096-52-05.5000W
32-40.851667N / 096-52.091667W
32.6808611 / -96.8681944
(estimated)
Elevation: 659.9 ft. / 201.1 m (surveyed)
Variation: 06E (1990)
From city: 6 miles SW of DALLAS, TX
Time zone: UTC -5 (UTC -6 during Standard Time)
Zip code: 75237

Airport Operations

Airport use: Open to the public
Activation date: 09/1948
Control tower: yes
ARTCC: FORT WORTH CENTER
FSS: FORT WORTH FLIGHT SERVICE STATION
NOTAMs facility: RBD (NOTAM-D service available)
Attendance: 0600-2000
ON CALL AFTR HRS.
Wind indicator: lighted
Segmented circle: yes
Lights: WHEN ATCT CLSD ACTVT; PAPI RY 13 & 17 - CTAF. MIRL RYS 13/31 AND 17/35 PRESET LOW INTST; TO INCR INTST ACTVT - CTAF.
Beacon: white-green (lighted land airport)
Operates sunset to sunrise.

Airport Communications

CTAF: 127.25
UNICOM: 122.95
ATIS: 126.35
WX ASOS: PHONE 214-330-5317
EXECUTIVE GROUND: 119.475 [0700-2100]
EXECUTIVE TOWER: 127.25 [0700-2100]
REGIONAL APPROACH: 125.2
REGIONAL DEPARTURE: 125.2
CLEARANCE DELIVERY: 118.625
DODJE STAR: 125.2 125.9
EMERG: 121.5
FINGR STAR: 124.3 125.275
GREGS STAR: 118.1
JFRYE STAR: 118.1
KNEAD STAR: 135.975
REEKO STAR: 125.2
SLANT STAR: 125.275
SWVAY STAR: 135.975
YEAGR STAR: 125.025 125.275
WX AWOS-3 at 49T (7 nm NE): 135.425 (214-670-1243)
WX AWOS-3P at GPM (9 nm W): 118.475 (972-606-1433)
WX AWOS-3 at LNC (10 nm SE): 118.975 (972-227-0471)
WX ASOS at DAL (10 nm N): PHONE 214-353-1551
WX ASOS at GKY (11 nm W): 127.375 (817-557-0251)
WX AWOS-3 at JWY (14 nm S): 119.575 (972-937-4747)
WX ASOS at DFW (16 nm NW): PHONE 972-615-2608
WX AWOS-3 at ADS (17 nm N): PHONE 972-386-4855
WX AWOS-3 at HQZ (18 nm E): 118.175 (972-222-7631)

Nearby radio navigation aids

VOR radial/distance  VOR name  Freq  Var
CVEr166/12.7COWBOY VOR/DME116.2006E
TTTr136/14.3MAVERICK VOR/DME113.1006E
FUZr123/20.1RANGER VORTAC115.7006E

 
NDB name  Hdg/Dist  Freq  Var  ID
MESQUITE243/18.824803EPQF .--. --.- ..-.
TRAVIS255/31.626006EAVZ .- ...- --..
MELISA199/37.642103EVLY ...- .-.. -.--
CADDO MILLS229/38.031606EMII -- .. ..

Airport Services

Fuel available: 100LL JET-A
FUEL AVBL 24 HR WITH MAJOR CREDIT CARD.
Parking: hangars and tiedowns
Airframe service: MAJOR
Powerplant service: MAJOR
Bulk oxygen: HIGH/LOW

Runway Information

Runway 13/31

Dimensions: 6451 x 100 ft. / 1966 x 30 m
Surface: concrete/grooved, in good condition
Weight bearing capacity: 
Single wheel: 35.0
Double wheel: 60.0
Double tandem: 110.0
Runway edge lights: medium intensity
Runway edge markings: RWY EDGE STRIPES AT 100'.
RUNWAY 13  RUNWAY 31
Latitude: 32-41.239263N32-40.485932N
Longitude: 096-52.585900W096-51.697675W
Elevation: 655.1 ft.645.6 ft.
Gradient: 0.2%0.2%
Traffic pattern: leftleft
Runway heading: 129 magnetic, 135 true309 magnetic, 315 true
Markings: nonprecision, in good conditionprecision, in good condition
Visual slope indicator: 4-light PAPI on left (3.00 degrees glide path)4-light PAPI on left (3.00 degrees glide path)
Runway end identifier lights: yesno
Touchdown point: yes, no lightsyes, no lights
Instrument approach: ILS
Obstructions: 10 ft. trees, 200 ft. from runway, 230 ft. right of centerline
+20 FT TREES & BRUSH 0-200 FT FM THLD 230 FT R; +10 FT TREES & BRUSH 60 FT FM THLD 300 FT L.
7 ft. road, 547 ft. from runway, 513 ft. right of centerline, 49:1 slope to clear

Runway 17/35

Dimensions: 3800 x 150 ft. / 1158 x 46 m
Surface: concrete, in good condition
Weight bearing capacity: 
Single wheel: 35.0
Double wheel: 60.0
Double tandem: 110.0
Runway edge lights: medium intensity
Runway edge markings: RWY EDGE STRIPES.
RUNWAY 17  RUNWAY 35
Latitude: 32-41.148045N32-40.521383N
Longitude: 096-52.007563W096-52.009178W
Elevation: 650.6 ft.659.2 ft.
Gradient: 0.2%0.2%
Traffic pattern: leftleft
Runway heading: 174 magnetic, 180 true354 magnetic, 000 true
Markings: nonprecision, in good conditionnonprecision, in good condition
Visual slope indicator: 4-light PAPI on right (3.00 degrees glide path)
Runway end identifier lights: yesyes
Touchdown point: yes, no lightsyes, no lights

Airport Ownership and Management from official FAA records

Ownership: Publicly-owned
Owner: CITY OF DALLAS
1500 MARILLA
DALLAS, TX 75201
Phone 214-670-7612
Manager: DARRELL PHILLIPS
5303 CHALLENGER DR. LB 17
DALLAS, TX 75237
Phone (241) 671-1296

Airport Operational Statistics

Aircraft based on the field: 256
Single engine airplanes: 171
Multi engine airplanes: 47
Jet airplanes: 26
Helicopters: 12
    
Aircraft operations: avg 118/day *
60% transient general aviation
39% local general aviation
<1% military
<1% air taxi
* for 12-month period ending 31 December 2015

Additional Remarks

BIRDS ON & INVOF ARPT.

Instrument Procedures

NOTE: All procedures below are presented as PDF files. If you need a reader for these files, you should download the free Adobe Reader.

NOT FOR NAVIGATION. Please procure official charts for flight.
FAA instrument procedures published for use from 24 May 2018 at 0901Z to 21 June 2018 at 0900Z.

 
STARs - Standard Terminal Arrivals
DODJE FIVE   2 pages: [1] [2] (750KB)
FINGR FIVE **CHANGED**   2 pages: [1] [2] (474KB)
GREGS EIGHT **CHANGED**   2 pages: [1] [2] (557KB)
JFRYE THREE (RNAV)   download (245KB)
KNEAD SEVEN   2 pages: [1] [2] (449KB)
REEKO THREE (RNAV)   download (198KB)
SLANT THREE (RNAV)   download (231KB)
SWVAY FOUR (RNAV)   download (225KB)
 
IAPs - Instrument Approach Procedures
ILS OR LOC RWY 31   download (229KB)
RNAV (GPS) RWY 17   download (146KB)
RNAV (GPS) RWY 31   download (188KB)
RNAV (GPS) RWY 35   download (163KB)
VOR/DME RWY 17   download (174KB)
NOTE: Special Alternate Minimums apply   download (34KB)
 
Departure Procedures
DALLAS FOUR   2 pages: [1] [2] (561KB)
GARLAND SIX   2 pages: [1] [2] (383KB)
HUBBARD NINE   2 pages: [1] [2] (368KB)
JOE POOL NINE   2 pages: [1] [2] (562KB)
KINGDOM FOUR **CHANGED**   2 pages: [1] [2] (407KB)
KUSSO FIVE (RNAV)   2 pages: [1] [2] (323KB)
SWABR FIVE (RNAV)   2 pages: [1] [2] (320KB)
TEXOMA FIVE **CHANGED**   2 pages: [1] [2] (530KB)
WORTH ONE **CHANGED**   2 pages: [1] [2] (549KB)
NOTE: Special Take-Off Minimums/Departure Procedures apply   download

Other nearby airports with instrument procedures:

KGPM - Grand Prairie Municipal Airport (9 nm W)
KLNC - Lancaster Regional Airport (10 nm SE)
KDAL - Dallas Love Field Airport (10 nm N)
KGKY - Arlington Municipal Airport (11 nm W)
KJWY - Mid-Way Regional Airport (14 nm S)
KDFW - Dallas-Fort Worth International Airport (16 nm NW)
KADS - Addison Airport (17 nm N)
KHQZ - Mesquite Metro Airport (18 nm E)
 
Loc | Ops | Rwys | IFR | FBO | Links
Com | Nav | Svcs | Stats | Notes

AirNav Hotels Sweepstakes
 
Area around KRBD (Dallas Executive Airport)
 
Road maps at: MapQuest Bing Google
 
Aerial photo
WARNING: Photo may not be current or correct
Aerial photo of KRBD (Dallas Executive Airport)
Photo by Bryant Sivess
Photo taken 07-Dec-2015
looking northwest.

Do you have a better or more recent aerial photo of Dallas Executive Airport that you would like to share? If so, please send us your photo.

 
Sectional chart

 
Airport diagram
CAUTION: Diagram may not be current
Diagram of KRBD (Dallas Executive Airport)
Download PDF
of official airport diagram from the FAA

 
Airport distance calculator
Flying to Dallas Executive Airport? Find the distance to fly.

From to KRBD

Sunrise and sunset
Times for 19-Jun-2018
 Local
(UTC-5)
 Zulu
(UTC)
Morning civil twilight05:5210:52
Sunrise06:2111:21
Sunset20:3701:37
Evening civil twilight21:0502:05

Current date and time
Zulu (UTC)  19-Jun-2018 21:33:42
Local (UTC-5)  19-Jun-2018 16:33:42
 
METAR
KRBD 192053Z 15016G21KT 10SM FEW028 BKN055 29/21 A2991 RMK AO2 RAB07E23 SLP118 P0000 60000 T02940206 56015
KGPM 
9nm W 
192050Z 10010G20KT 5SM RA SCT009 BKN032 26/21 A2993
KLNC 
10nm SE 
192115Z AUTO 13008KT 10SM BKN029 BKN038 OVC047 28/21 A2992 RMK AO2 T02770213
KDAL 
10nm N 
192053Z 12018G24KT 10SM SCT040 BKN055TCU BKN070 BKN180 29/22 A2991 RMK AO2 RAB40E50 SLP120 TCU N-NE-OHD-SW-W AND DSNT NW MDT CU ALQDS P0000 60000 T02940217 56017
KGKY 
12nm W 
192053Z 08011G23KT 6SM -RA BKN033 BKN040 OVC065 26/23 A2991 RMK AO2 RAE1955B15E25B46 SLP118 P0002 60002 T02610228 56016
KJWY 
14nm S 
192115Z AUTO 11006KT 10SM SCT026 BKN036 OVC060 28/22 A2992 RMK AO2 T02760216
KDFW 
15nm NW 
192053Z 15010KT 10SM FEW036 BKN065TCU BKN120 28/22 A2989 RMK AO2 RAB01E14 SLP114 SHRA DSNT NE S W TCU ALQDS P0003 60003 T02830217 58019
KADS 
17nm N 
192047Z 14009KT 5SM -RA SCT029 BKN037 BKN048 27/22 A2992
KHQZ 
18nm E 
192050Z 12011KT 10SM SCT030 OVC040 28/21 A2992
TAF
KDAL 
10nm N 
191726Z 1918/2018 13012KT P6SM VCSH SCT027 OVC035 TEMPO 1918/1920 BKN027 FM200000 13014KT P6SM BKN040 FM200500 15010KT P6SM OVC025 FM200900 15009KT P6SM BKN009 FM201500 16011KT P6SM OVC015
KGKY 
12nm W 
191726Z 1918/2018 13012KT P6SM VCSH SCT025 OVC035 TEMPO 1918/1920 BKN025 FM200000 13014KT P6SM BKN040 FM200500 15010KT P6SM OVC025 FM200900 15009KT P6SM BKN009 FM201500 16011KT P6SM OVC015
KDFW 
15nm NW 
191726Z 1918/2024 13012KT P6SM VCSH SCT024 OVC035 TEMPO 1918/1920 BKN024 FM200000 13014KT P6SM BKN040 FM200500 15010KT P6SM OVC025 FM200900 15009KT P6SM BKN009 FM201500 16011KT P6SM OVC015 FM202000 16012KT P6SM BKN035
NOTAMs
Click for the latest NOTAMs
NOTAMs are issued by the DoD/FAA and will open in a separate window not controlled by AirNav.

 

 
 

FBO, Fuel Providers, and Aircraft Ground Support

  
 Business Name 
 
 Contact 
 
 Services / Description 
 
Fuel Prices
 
Comments
  
Ambassador Jet Center
No ramp fees
ASRI 131.90
214-623-8800
214-251-6512
[web site]
[email]
Premier FBO situated minutes south of downtown Dallas - "Best kept secret in Dallas Aviation" offering the fastest quick turn in the Dallas metro area, no ramp fees, no landing fees, no landing or taxi delays, unmatched personal service to both our base and transient clientele -call ahead with any special requests. Excellent facilities including pilots lounge, conference room & internet access on-site as well as a restaurant and full service bar at the recently constructed Dallas Executive Airports main terminal next door. Our customer service agents are standing by...
More info and photos of Ambassador Jet Center
 
AirBoss™ fuel program   Limousine service   NATA Safety 1st   U.S. Government AIR Card   CAA Preferred FBO   UVair   World Fuel | Colt Contract Fuel   Bravo Rewards   Contract Fuel   Crew cars   Enterprise Rent-A-Car   Hertz   National Business Aviation Association  
 
EPIC
100LL Jet A
FS $4.75 $4.05 
GUARANTEED
AirBossMEMBER
PRICING
FS $4.65 $3.90 
 
   31 read write
Alternatives at nearby airports
IMPORTANT: Note that the FBOs below are NOT at KRBD but at other nearby airports. Do not expect services from these FBOs to be available at KRBD.
Located at KGKY
Harrison Aviation
ASRI 131.325
817-557-0350
toll-free 1-888-383-5354
[web site]
[email]
At KGKY (Arlington Municipal Airport), 11 miles W

Harrison Aviation is geared up and ready for all the sporting events. The full length of the runway at the Arlington Airport runway is open for business and better than ever. Our location is the closest full service Executive Airport to Cowboys Stadium, Texas Rangers Ball Park, and Six Flags. Mention this ad when using full service and get .25 cent off per gallon until Sep 30, 2012. We look forward to seeing you at Harrison Aviation.
More info and photos of Harrison Aviation (KGKY)
Located at KGKY
Shell
100LL Jet A
FS $5.04 $5.05 
SS $4.44 --- 
 Updated 18-Jun-2018
 
   7 read write
FS=Full service
SS=Self service
Update Fuel Prices
 

Aviation Businesses, Services, and Facilities

  
 Business Name 
 
 Contact 
 
 Services / Description 
 
Distance
 
Comments
  
Dallas Executive Aircraft Service 214-558-1238
[web site]
[email]
Oxygen service, GPU / Power cart, Aircraft maintenance, Avionics sales and service, Aircraft modifications, Aircraft painting, Aircraft interiors, ...

More info about Dallas Executive Aircraft Service
on airport  
   write
 

Getting Around: Taxi, Limo, Rental Cars, Mass Transit

  
 Business Name 
 
 Contact 
 
Services / Description
 
Comments
  
DART, Red Bird Transit Center 214-979-1111
no information available

If you are affiliated with DART, Red Bird Transit Center and would like to show here your services, contact info, web link, logo, and more, click here
 
   write
 

Would you like to see your business listed on this page?

 If your business provides an interesting product or service to pilots, flight crews, aircraft, or users of the Dallas Executive Airport, you should consider listing it here.  To start the listing process, click on the button below
 
Add a business
 

Other Pages about Dallas Executive Airport

www.dallasexecairport.com
 
Update a link
 
Copyright © AirNav, LLC. All rights reserved. Privacy Policy  Contact